createdAt,value
2018-06-21T00:00:02.406Z,100990.18
2018-06-21T00:03:07.158Z,100975.28
2018-06-21T00:06:11.686Z,100977.44
2018-06-21T00:09:15.964Z,100979.63
2018-06-21T00:12:20.341Z,100992.23
2018-06-21T00:15:24.636Z,100991.78
2018-06-21T00:18:28.873Z,100997.84
2018-06-21T00:21:33.133Z,101006.09
2018-06-21T00:24:37.423Z,100999.98
2018-06-21T00:27:41.681Z,100989.93
2018-06-21T00:30:46.002Z,100996.04
2018-06-21T00:33:50.285Z,100990.76
2018-06-21T00:36:54.614Z,100978.55
2018-06-21T00:39:58.901Z,100982.03
2018-06-21T00:43:03.237Z,100976.77
2018-06-21T00:46:07.649Z,100980.72
2018-06-21T00:49:11.981Z,100969.78
2018-06-21T00:52:16.253Z,100967.98
2018-06-21T00:56:29.909Z,100978.80
2018-06-21T00:59:34.177Z,100968.80
2018-06-21T01:02:38.505Z,100966.55
2018-06-21T01:05:42.761Z,100969.55
2018-06-21T01:08:47.119Z,100964.75
2018-06-21T01:11:51.466Z,100969.10
2018-06-21T01:14:55.853Z,100972.58
2018-06-21T01:18:00.128Z,100978.22
2018-06-21T01:21:04.844Z,100978.21
2018-06-21T01:24:09.282Z,100963.84
2018-06-21T01:27:13.665Z,100961.61
2018-06-21T01:30:17.954Z,100969.42
2018-06-21T01:33:22.296Z,100978.58
2018-06-21T01:36:26.557Z,100976.81
2018-06-21T01:39:30.916Z,100984.66
2018-06-21T01:42:35.268Z,100969.85
2018-06-21T01:45:40.966Z,100966.77
2018-06-21T01:48:46.200Z,100962.44
2018-06-21T01:51:51.343Z,100955.45
2018-06-21T01:54:57.301Z,100951.04
2018-06-21T01:58:02.619Z,100950.58
2018-06-21T02:01:06.949Z,100931.38
2018-06-21T02:04:11.369Z,100933.98
2018-06-21T02:07:15.872Z,100933.53
2018-06-21T02:10:20.237Z,100927.83
2018-06-21T02:13:24.777Z,100946.98
2018-06-21T02:16:29.101Z,100948.16
2018-06-21T02:19:33.496Z,100952.93
2018-06-21T02:22:37.800Z,100951.58
2018-06-21T02:25:42.158Z,100937.67
2018-06-21T02:28:47.894Z,100921.59
2018-06-21T02:31:52.203Z,100919.42
2018-06-21T02:34:56.990Z,100918.53
2018-06-21T02:38:01.370Z,100921.09
2018-06-21T02:41:05.875Z,100921.48
2018-06-21T02:44:10.781Z,100923.66
2018-06-21T02:47:15.141Z,100914.50
2018-06-21T02:50:20.435Z,100917.09
2018-06-21T02:53:24.789Z,100920.09
2018-06-21T02:56:29.107Z,100917.36
2018-06-21T02:59:33.471Z,100909.97
2018-06-21T03:02:37.749Z,100909.09
2018-06-21T03:05:42.042Z,100914.34
2018-06-21T03:08:46.691Z,100910.34
2018-06-21T03:11:51.006Z,100906.00
2018-06-21T03:14:55.645Z,100906.87
2018-06-21T03:18:00.016Z,100909.02
2018-06-21T03:21:04.361Z,100903.80
2018-06-21T03:24:08.687Z,100902.05
2018-06-21T03:27:13.235Z,100899.47
2018-06-21T03:30:17.606Z,100889.03
2018-06-21T03:33:21.915Z,100878.16
2018-06-21T03:36:26.168Z,100881.20
2018-06-21T03:39:30.896Z,100887.30
2018-06-21T03:42:35.264Z,100889.85
2018-06-21T03:45:39.641Z,100884.69
2018-06-21T03:48:44.010Z,100888.11
2018-06-21T03:51:48.520Z,100882.00
2018-06-21T03:54:53.449Z,100871.16
2018-06-21T03:57:57.863Z,100875.97
2018-06-21T04:01:02.181Z,100880.65
2018-06-21T04:04:06.481Z,100885.00
2018-06-21T04:07:19.585Z,100878.05
2018-06-21T04:10:23.879Z,100875.36
2018-06-21T04:13:28.178Z,100874.52
2018-06-21T04:16:32.437Z,100875.36
2018-06-21T04:19:37.093Z,100865.31
2018-06-21T04:22:41.420Z,100864.92
2018-06-21T04:25:45.761Z,100855.88
2018-06-21T04:28:50.091Z,100859.83
2018-06-21T04:31:54.401Z,100842.50
2018-06-21T04:34:58.682Z,100851.61
2018-06-21T04:38:03.041Z,100860.39
2018-06-21T04:41:07.290Z,100850.02
2018-06-21T04:44:11.720Z,100841.30
2018-06-21T04:47:16.006Z,100845.21
2018-06-21T04:50:20.426Z,100839.14
2018-06-21T04:53:24.799Z,100820.47
2018-06-21T04:56:29.098Z,100831.43
2018-06-21T04:59:33.408Z,100838.41
2018-06-21T05:02:37.688Z,100847.13
2018-06-21T05:05:41.707Z,100836.64
2018-06-21T05:08:46.009Z,100840.09
2018-06-21T05:11:50.243Z,100850.94
2018-06-21T05:14:54.533Z,100847.42
2018-06-21T05:17:58.848Z,100832.70
2018-06-21T05:21:03.223Z,100834.02
2018-06-21T05:24:07.663Z,100835.78
2018-06-21T05:27:12.279Z,100832.66
2018-06-21T05:30:16.641Z,100830.52
2018-06-21T05:33:21.004Z,100831.88
2018-06-21T05:36:25.313Z,100823.58
2018-06-21T05:39:29.604Z,100816.23
2018-06-21T05:42:33.912Z,100816.70
2018-06-21T05:45:38.260Z,100816.29
2018-06-21T05:48:42.585Z,100813.73
2018-06-21T05:51:47.197Z,100795.05
2018-06-21T05:54:51.502Z,100799.47
2018-06-21T05:57:55.852Z,100802.03
2018-06-21T06:01:00.136Z,100797.23
2018-06-21T06:04:04.458Z,100805.09
2018-06-21T06:07:08.774Z,100802.49
2018-06-21T06:10:13.128Z,100800.33
2018-06-21T06:13:17.410Z,100798.20
2018-06-21T06:16:21.924Z,100787.77
2018-06-21T06:19:26.366Z,100794.72
2018-06-21T06:22:30.879Z,100793.80
2018-06-21T06:25:35.347Z,100795.52
2018-06-21T06:28:39.683Z,100791.17
2018-06-21T06:31:44.071Z,100784.17
2018-06-21T06:34:48.575Z,100783.73
2018-06-21T06:37:52.804Z,100784.70
2018-06-21T06:40:57.241Z,100783.38
2018-06-21T06:44:01.533Z,100772.08
2018-06-21T06:47:06.092Z,100774.29
2018-06-21T06:50:10.377Z,100773.01
2018-06-21T06:53:14.664Z,100766.91
2018-06-21T06:56:19.030Z,100768.23
2018-06-21T06:59:23.361Z,100764.75
2018-06-21T07:02:27.668Z,100761.73
2018-06-21T07:05:31.993Z,100762.17
2018-06-21T07:08:36.280Z,100760.00
2018-06-21T07:11:40.645Z,100757.83
2018-06-21T07:14:44.934Z,100756.06
2018-06-21T07:17:49.220Z,100751.67
2018-06-21T07:20:53.578Z,100745.14
2018-06-21T07:23:57.900Z,100748.58
2018-06-21T07:27:02.268Z,100733.34
2018-06-21T07:30:07.438Z,100735.48
2018-06-21T07:33:11.773Z,100743.73
2018-06-21T07:36:16.149Z,100734.55
2018-06-21T07:39:20.618Z,100733.56
2018-06-21T07:42:24.790Z,100746.08
2018-06-21T07:45:29.174Z,100734.59
2018-06-21T07:48:33.477Z,100738.41
2018-06-21T07:51:37.813Z,100736.95
2018-06-21T07:54:42.135Z,100731.94
2018-06-21T07:57:46.451Z,100734.94
2018-06-21T08:00:51.274Z,100732.02
2018-06-21T08:03:55.807Z,100736.33
2018-06-21T08:07:00.131Z,100730.80
2018-06-21T08:10:04.466Z,100738.27
2018-06-21T08:13:09.734Z,100739.58
2018-06-21T08:16:14.792Z,100735.73
2018-06-21T08:19:19.167Z,100742.72
2018-06-21T08:22:24.640Z,100746.18
2018-06-21T08:25:29.551Z,100746.59
2018-06-21T08:28:34.484Z,100745.25
2018-06-21T08:31:42.698Z,100744.75
2018-06-21T08:34:49.087Z,100745.20
2018-06-21T08:38:03.740Z,100752.55
2018-06-21T08:41:08.850Z,100743.73
2018-06-21T08:44:15.566Z,100746.66
2018-06-21T08:47:21.772Z,100747.06
2018-06-21T08:50:28.873Z,100745.77
2018-06-21T08:53:34.526Z,100741.47
2018-06-21T08:56:39.674Z,100747.60
2018-06-21T08:59:47.751Z,100753.96
2018-06-21T09:02:53.113Z,100748.16
2018-06-21T09:06:01.705Z,100739.47
2018-06-21T09:09:12.107Z,100738.73
2018-06-21T09:12:20.738Z,100737.44
2018-06-21T09:15:36.777Z,100722.30
2018-06-21T09:18:50.136Z,100729.50
2018-06-21T09:22:00.878Z,100727.52
2018-06-21T09:25:06.377Z,100722.88
2018-06-21T09:28:12.994Z,100727.26
2018-06-21T09:31:23.337Z,100729.97
2018-06-21T09:34:34.641Z,100731.41
2018-06-21T09:37:51.988Z,100730.92
2018-06-21T09:41:07.925Z,100726.17
2018-06-21T09:44:24.373Z,100724.84
2018-06-21T09:47:38.441Z,100725.84
2018-06-21T09:50:51.202Z,100719.30
2018-06-21T09:54:03.462Z,100722.33
2018-06-21T09:57:16.165Z,100725.84
2018-06-21T10:00:32.191Z,100717.05
2018-06-21T10:07:02.346Z,100720.56
2018-06-21T10:10:20.247Z,100725.34
2018-06-21T10:13:26.099Z,100734.03
2018-06-21T10:16:33.333Z,100736.14
2018-06-21T10:19:44.521Z,100742.17
2018-06-21T10:22:59.332Z,100739.09
2018-06-21T10:26:10.941Z,100749.35
2018-06-21T10:29:24.998Z,100752.17
2018-06-21T10:32:46.959Z,100749.12
2018-06-21T10:36:03.010Z,100751.12
2018-06-21T10:39:20.324Z,100765.31
2018-06-21T10:42:33.013Z,100769.65
2018-06-21T10:45:44.915Z,100771.74
2018-06-21T10:48:53.674Z,100770.79
2018-06-21T10:52:02.531Z,100777.69
2018-06-21T10:58:33.640Z,100777.06
2018-06-21T11:01:50.140Z,100775.64
2018-06-21T11:05:02.716Z,100778.55
2018-06-21T11:08:17.656Z,100783.36
2018-06-21T11:11:31.683Z,100782.89
2018-06-21T11:18:02.299Z,100785.46
2018-06-21T11:21:12.559Z,100787.30
2018-06-21T11:24:21.454Z,100790.83
2018-06-21T11:27:29.653Z,100797.81
2018-06-21T11:30:42.149Z,100802.58
2018-06-21T11:34:01.139Z,100797.38
2018-06-21T11:37:21.940Z,100805.18
2018-06-21T11:40:37.043Z,100806.69
2018-06-21T11:47:30.814Z,100825.38
2018-06-21T11:50:44.925Z,100831.72
2018-06-21T11:53:58.596Z,100825.52
2018-06-21T11:57:21.418Z,100837.52
2018-06-21T12:00:32.561Z,100839.27
2018-06-21T12:03:54.852Z,100839.30
2018-06-21T12:07:06.970Z,100851.40
2018-06-21T12:10:17.814Z,100842.25
2018-06-21T12:13:36.853Z,100841.81
2018-06-21T12:16:56.854Z,100852.31
2018-06-21T12:20:21.456Z,100843.33
2018-06-21T12:23:34.160Z,100848.88
2018-06-21T12:26:47.402Z,100852.34
2018-06-21T12:30:11.545Z,100855.91
2018-06-21T12:33:25.611Z,100861.27
2018-06-21T12:36:40.071Z,100863.45
2018-06-21T12:43:12.295Z,100870.70
2018-06-21T12:46:36.080Z,100875.91
2018-06-21T12:49:50.814Z,100872.50
2018-06-21T12:53:03.159Z,100873.63
2018-06-21T12:56:17.879Z,100873.81
2018-06-21T12:59:34.532Z,100872.89
2018-06-21T13:02:47.013Z,100877.63
2018-06-21T13:05:51.430Z,100881.40
2018-06-21T13:09:12.822Z,100894.31
2018-06-21T13:12:35.606Z,100895.10
2018-06-21T13:15:40.464Z,100895.94
2018-06-21T13:18:44.969Z,100891.27
2018-06-21T13:21:49.566Z,100899.20
2018-06-21T13:24:54.166Z,100899.52
2018-06-21T13:27:59.004Z,100893.34
2018-06-21T13:31:03.368Z,100908.08
2018-06-21T13:34:07.754Z,100909.45
2018-06-21T13:37:12.210Z,100898.04
2018-06-21T13:40:16.819Z,100899.41
2018-06-21T13:43:20.995Z,100895.65
2018-06-21T13:46:25.351Z,100897.08
2018-06-21T13:49:29.858Z,100899.70
2018-06-21T13:52:34.191Z,100901.19
2018-06-21T13:55:38.505Z,100905.55
2018-06-21T13:58:42.852Z,100912.55
2018-06-21T14:01:47.276Z,100915.98
2018-06-21T14:04:51.567Z,100924.55
2018-06-21T14:07:56.061Z,100926.33
2018-06-21T14:11:00.238Z,100934.54
2018-06-21T14:14:04.668Z,100931.59
2018-06-21T14:17:08.972Z,100931.57
2018-06-21T14:20:13.390Z,100953.41
2018-06-21T14:23:17.704Z,100935.19
2018-06-21T14:26:22.026Z,100944.38
2018-06-21T14:29:26.430Z,100941.84
2018-06-21T14:32:30.764Z,100945.59
2018-06-21T14:35:35.155Z,100959.40
2018-06-21T14:38:39.759Z,100983.42
2018-06-21T14:41:44.138Z,100988.44
2018-06-21T14:44:48.470Z,100986.36
2018-06-21T14:47:59.207Z,100993.05
2018-06-21T14:51:03.735Z,100995.50
2018-06-21T14:54:08.135Z,100995.91
2018-06-21T14:57:12.553Z,100995.03
2018-06-21T15:00:16.844Z,100995.96
2018-06-21T15:03:21.253Z,100991.98
2018-06-21T15:06:25.620Z,100993.48
2018-06-21T15:09:29.970Z,100981.28
2018-06-21T15:12:34.274Z,100985.45
2018-06-21T15:15:38.698Z,100978.14
2018-06-21T15:18:42.989Z,100996.56
2018-06-21T15:21:47.345Z,100999.37
2018-06-21T15:24:51.657Z,100997.05
2018-06-21T15:27:56.019Z,101003.28
2018-06-21T15:31:00.401Z,101002.84
2018-06-21T15:34:04.509Z,101004.00
2018-06-21T15:37:08.979Z,101025.59
2018-06-21T15:40:13.349Z,101018.89
2018-06-21T15:43:17.779Z,101018.12
2018-06-21T15:46:22.171Z,101008.53
2018-06-21T15:49:26.584Z,101008.88
2018-06-21T15:52:31.279Z,101011.41
2018-06-21T15:55:35.649Z,101030.80
2018-06-21T15:58:40.353Z,101034.16
2018-06-21T16:01:44.705Z,101045.12
2018-06-21T16:04:49.037Z,101041.66
2018-06-21T16:07:53.457Z,101057.94
2018-06-21T16:10:58.229Z,101054.80
2018-06-21T16:14:02.621Z,101054.04
2018-06-21T16:17:07.210Z,101063.76
2018-06-21T16:20:11.586Z,101063.05
2018-06-21T16:23:16.149Z,101053.32
2018-06-21T16:26:20.478Z,101059.88
2018-06-21T16:29:24.905Z,101071.02
2018-06-21T16:32:29.443Z,101073.12
2018-06-21T16:35:33.933Z,101073.12
2018-06-21T16:38:38.623Z,101082.70
2018-06-21T16:41:43.251Z,101076.06
2018-06-21T16:44:47.636Z,101077.52
2018-06-21T16:47:52.173Z,101079.35
2018-06-21T16:50:56.928Z,101081.69
2018-06-21T16:54:01.309Z,101079.72
2018-06-21T16:57:05.947Z,101084.52
2018-06-21T17:00:10.303Z,101082.77
2018-06-21T17:03:14.892Z,101084.55
2018-06-21T17:06:19.597Z,101095.45
2018-06-21T17:09:24.401Z,101084.96
2018-06-21T17:12:29.329Z,101091.52
2018-06-21T17:15:33.425Z,101086.73
2018-06-21T17:18:37.976Z,101079.86
2018-06-21T17:21:42.423Z,101105.38
2018-06-21T17:24:46.833Z,101103.69
2018-06-21T17:27:51.242Z,101097.41
2018-06-21T17:30:55.620Z,101107.33
2018-06-21T17:34:00.115Z,101109.12
2018-06-21T17:37:04.546Z,101113.95
2018-06-21T17:40:08.865Z,101114.37
2018-06-21T17:43:13.353Z,101113.93
2018-06-21T17:46:17.890Z,101112.22
2018-06-21T17:49:23.688Z,101119.54
2018-06-21T17:52:28.923Z,101113.78
2018-06-21T17:55:33.348Z,101120.55
2018-06-21T17:58:37.798Z,101122.49
2018-06-21T18:01:42.379Z,101138.53
2018-06-21T18:04:47.604Z,101143.44
2018-06-21T18:07:52.074Z,101132.81
2018-06-21T18:10:56.556Z,101139.17
2018-06-21T18:14:01.026Z,101139.00
2018-06-21T18:17:05.409Z,101137.95
2018-06-21T18:20:09.749Z,101137.14
2018-06-21T18:23:14.111Z,101136.23
2018-06-21T18:26:18.488Z,101128.33
2018-06-21T18:29:23.215Z,101127.34
2018-06-21T18:32:29.151Z,101127.70
2018-06-21T18:35:34.595Z,101117.94
2018-06-21T18:38:39.013Z,101120.59
2018-06-21T18:41:44.494Z,101122.84
2018-06-21T18:44:50.894Z,101124.66
2018-06-21T18:47:57.556Z,101116.01
2018-06-21T18:51:04.114Z,101120.55
2018-06-21T18:54:10.347Z,101119.16
2018-06-21T18:57:22.145Z,101126.50
2018-06-21T19:00:34.602Z,101129.31
2018-06-21T19:03:45.316Z,101129.45
2018-06-21T19:06:54.869Z,101128.58
2018-06-21T19:10:08.829Z,101130.12
2018-06-21T19:13:18.899Z,101126.82
2018-06-21T19:16:26.041Z,101121.56
2018-06-21T19:19:36.923Z,101120.98
2018-06-21T19:22:44.895Z,101120.78
2018-06-21T19:25:55.864Z,101120.15
2018-06-21T19:29:06.177Z,101124.86
2018-06-21T19:32:21.211Z,101126.93
2018-06-21T19:35:33.782Z,101125.14
2018-06-21T19:38:43.046Z,101122.91
2018-06-21T19:41:49.194Z,101124.55
2018-06-21T19:44:53.733Z,101122.27
2018-06-21T19:47:58.700Z,101119.62
2018-06-21T19:51:08.672Z,101128.28
2018-06-21T19:54:23.362Z,101126.67
2018-06-21T19:57:31.190Z,101127.59
2018-06-21T20:00:41.345Z,101124.06
2018-06-21T20:04:18.660Z,101134.41
2018-06-21T20:07:30.642Z,101124.72
2018-06-21T20:10:53.636Z,101133.66
2018-06-21T20:14:03.481Z,101123.09
2018-06-21T20:17:19.287Z,101116.91
2018-06-21T20:20:40.078Z,101120.21
2018-06-21T20:24:04.180Z,101121.45
2018-06-21T20:27:19.574Z,101110.88
2018-06-21T20:30:34.976Z,101117.36
2018-06-21T20:33:53.148Z,101111.23
2018-06-21T20:37:13.171Z,101101.22
2018-06-21T20:40:23.668Z,101105.07
2018-06-21T20:43:37.117Z,101103.28
2018-06-21T20:46:55.199Z,101107.18
2018-06-21T20:50:06.654Z,101110.25
2018-06-21T20:53:20.014Z,101100.29
2018-06-21T20:56:55.249Z,101106.42
2018-06-21T21:00:06.480Z,101109.02
2018-06-21T21:06:48.796Z,101105.93
2018-06-21T21:10:05.198Z,101102.34
2018-06-21T21:13:21.641Z,101102.34
2018-06-21T21:16:34.703Z,101100.94
2018-06-21T21:19:50.882Z,101097.52
2018-06-21T21:22:59.480Z,101092.62
2018-06-21T21:26:37.046Z,101096.48
2018-06-21T21:29:56.232Z,101096.97
2018-06-21T21:33:23.214Z,101097.78
2018-06-21T21:36:39.174Z,101096.05
2018-06-21T21:39:59.219Z,101092.58
2018-06-21T21:43:29.253Z,101090.84
2018-06-21T21:46:44.500Z,101086.47
2018-06-21T21:49:54.883Z,101083.38
2018-06-21T21:53:15.546Z,101079.41
2018-06-21T21:56:32.212Z,101081.56
2018-06-21T21:59:36.509Z,101078.87
2018-06-21T22:02:40.948Z,101078.97
2018-06-21T22:05:45.539Z,101085.09
2018-06-21T22:08:49.924Z,101072.22
2018-06-21T22:11:54.288Z,101074.39
2018-06-21T22:14:58.676Z,101070.06
2018-06-21T22:18:03.020Z,101077.16
2018-06-21T22:21:07.419Z,101080.05
2018-06-21T22:24:11.759Z,101071.37
2018-06-21T22:27:16.090Z,101065.53
2018-06-21T22:30:20.381Z,101064.06
2018-06-21T22:33:24.662Z,101057.33
2018-06-21T22:36:29.183Z,101060.13
2018-06-21T22:39:33.490Z,101061.63
2018-06-21T22:42:41.235Z,101057.94
2018-06-21T22:45:54.180Z,101044.34
2018-06-21T22:49:11.299Z,101036.86
2018-06-21T22:52:32.296Z,101038.20
2018-06-21T22:59:28.750Z,101032.52
2018-06-21T23:02:43.830Z,101032.59
2018-06-21T23:06:08.963Z,101020.05
2018-06-21T23:09:28.471Z,101022.27
2018-06-21T23:12:44.507Z,101023.61
2018-06-21T23:16:01.494Z,101019.29
2018-06-21T23:23:18.008Z,101017.55
2018-06-21T23:26:51.844Z,101011.05
2018-06-21T23:30:13.509Z,101007.16
2018-06-21T23:33:35.541Z,101008.48
2018-06-21T23:36:51.548Z,101002.84
2018-06-21T23:40:01.593Z,101002.34
2018-06-21T23:43:13.532Z,101006.31
2018-06-21T23:46:24.133Z,101000.31
2018-06-21T23:49:40.429Z,101002.58
2018-06-21T23:57:15.137Z,101002.67
